createdAt,value
2019-06-01T00:01:44.618Z,4.93
2019-06-01T00:04:16.235Z,4.97
2019-06-01T00:06:47.221Z,4.63
2019-06-01T00:09:18.132Z,4.70
2019-06-01T00:11:49.634Z,4.63
2019-06-01T00:14:20.609Z,5.13
2019-06-01T00:16:51.313Z,4.77
2019-06-01T00:19:22.151Z,5.30
2019-06-01T00:21:54.227Z,5.10
2019-06-01T00:24:25.146Z,4.57
2019-06-01T00:26:57.181Z,4.67
2019-06-01T00:29:27.903Z,5.20
2019-06-01T00:31:58.667Z,5.13
2019-06-01T00:34:29.420Z,5.17
2019-06-01T00:37:00.103Z,5.63
2019-06-01T00:39:30.760Z,4.90
2019-06-01T00:42:03.161Z,5.17
2019-06-01T00:44:33.811Z,5.83
2019-06-01T00:47:04.922Z,5.40
2019-06-01T00:49:35.959Z,5.73
2019-06-01T00:52:06.747Z,5.73
2019-06-01T00:54:37.617Z,6.50
2019-06-01T00:57:08.551Z,5.63
2019-06-01T00:59:39.311Z,6.33
2019-06-01T01:02:10.274Z,5.93
2019-06-01T01:04:40.974Z,5.77
2019-06-01T01:07:11.868Z,5.27
2019-06-01T01:09:42.684Z,5.33
2019-06-01T01:12:14.179Z,5.67
2019-06-01T01:14:45.176Z,5.67
2019-06-01T01:17:15.850Z,5.37
2019-06-01T01:19:47.649Z,5.87
2019-06-01T01:22:18.641Z,4.87
2019-06-01T01:24:50.488Z,5.83
2019-06-01T01:27:21.538Z,5.50
2019-06-01T01:29:53.160Z,5.23
2019-06-01T01:32:24.995Z,5.43
2019-06-01T01:34:55.850Z,5.10
2019-06-01T01:37:26.498Z,5.53
2019-06-01T01:39:58.572Z,5.20
2019-06-01T01:42:29.320Z,6.20
2019-06-01T01:45:00.277Z,5.50
2019-06-01T01:47:31.134Z,5.73
2019-06-01T01:50:03.075Z,5.93
2019-06-01T01:52:33.905Z,5.70
2019-06-01T01:55:05.563Z,5.97
2019-06-01T01:57:36.601Z,5.10
2019-06-01T02:00:08.596Z,5.13
2019-06-01T02:02:39.813Z,5.57
2019-06-01T02:05:10.786Z,5.73
2019-06-01T02:07:41.510Z,5.97
2019-06-01T02:10:12.701Z,5.83
2019-06-01T02:12:44.176Z,5.60
2019-06-01T02:15:16.054Z,4.80
2019-06-01T02:17:46.665Z,5.67
2019-06-01T02:20:17.512Z,5.03
2019-06-01T02:22:48.322Z,5.30
2019-06-01T02:25:19.285Z,5.10
2019-06-01T02:27:50.198Z,4.50
2019-06-01T02:30:21.239Z,4.70
2019-06-01T02:32:53.653Z,4.10
2019-06-01T02:35:25.670Z,4.20
2019-06-01T02:37:58.627Z,4.60
2019-06-01T02:40:29.810Z,4.70
2019-06-01T02:43:01.379Z,4.83
2019-06-01T02:45:33.050Z,5.63
2019-06-01T02:48:03.965Z,6.20
2019-06-01T02:50:36.500Z,6.10
2019-06-01T02:53:08.859Z,5.70
2019-06-01T02:55:39.648Z,6.43
2019-06-01T02:58:10.563Z,7.20
2019-06-01T03:01:30.078Z,7.80
2019-06-01T03:04:01.570Z,7.43
2019-06-01T03:06:36.865Z,7.37
2019-06-01T03:09:09.319Z,5.87
2019-06-01T03:11:42.017Z,5.00
2019-06-01T03:14:13.950Z,5.43
2019-06-01T03:16:44.870Z,5.77
2019-06-01T03:19:19.433Z,6.00
2019-06-01T03:21:51.779Z,5.97
2019-06-01T03:24:26.152Z,5.50
2019-06-01T03:26:58.359Z,5.60
2019-06-01T03:29:32.972Z,5.90
2019-06-01T03:32:23.776Z,5.10
2019-06-01T03:34:36.435Z,5.93
2019-06-01T03:37:07.142Z,5.10
2019-06-01T03:39:38.052Z,5.17
2019-06-01T03:42:09.505Z,5.40
2019-06-01T03:44:40.143Z,4.90
2019-06-01T03:47:11.897Z,5.23
2019-06-01T03:49:42.645Z,5.17
2019-06-01T03:52:13.633Z,5.23
2019-06-01T03:54:44.504Z,5.53
2019-06-01T03:57:15.249Z,5.27
2019-06-01T03:59:46.187Z,5.00
2019-06-01T04:02:17.178Z,5.23
2019-06-01T04:04:48.056Z,5.37
2019-06-01T04:07:20.245Z,4.70
2019-06-01T04:09:50.979Z,4.17
2019-06-01T04:12:22.750Z,4.60
2019-06-01T04:14:53.595Z,4.33
2019-06-01T04:17:24.202Z,5.67
2019-06-01T04:19:55.226Z,6.03
2019-06-01T04:22:25.952Z,5.80
2019-06-01T04:24:56.799Z,5.60
2019-06-01T04:27:27.516Z,5.47
2019-06-01T04:29:58.166Z,6.77
2019-06-01T04:32:29.016Z,5.70
2019-06-01T04:34:59.911Z,5.80
2019-06-01T04:37:30.647Z,5.77
2019-06-01T04:40:01.523Z,5.53
2019-06-01T04:42:32.462Z,5.60
2019-06-01T04:45:04.360Z,5.67
2019-06-01T04:47:35.228Z,5.70
2019-06-01T04:50:06.687Z,5.50
2019-06-01T04:52:38.344Z,5.70
2019-06-01T04:55:09.263Z,5.67
2019-06-01T04:57:40.254Z,5.20
2019-06-01T05:00:25.034Z,5.03
2019-06-01T05:02:43.769Z,4.67
2019-06-01T05:05:15.466Z,5.20
2019-06-01T05:07:46.446Z,4.90
2019-06-01T05:10:17.267Z,4.43
2019-06-01T05:12:48.137Z,4.80
2019-06-01T05:15:19.207Z,5.10
2019-06-01T05:17:49.807Z,5.43
2019-06-01T05:20:20.715Z,4.97
2019-06-01T05:22:51.313Z,4.90
2019-06-01T05:25:22.214Z,5.00
2019-06-01T05:27:53.046Z,4.67
2019-06-01T05:30:23.852Z,4.73
2019-06-01T05:32:54.493Z,5.20
2019-06-01T05:35:25.339Z,4.93
2019-06-01T05:37:56.068Z,5.00
2019-06-01T05:40:26.863Z,4.83
2019-06-01T05:42:57.942Z,4.60
2019-06-01T05:45:28.894Z,5.43
2019-06-01T05:47:59.797Z,5.47
2019-06-01T05:50:30.615Z,5.37
2019-06-01T05:53:01.626Z,5.43
2019-06-01T05:55:32.521Z,5.00
2019-06-01T05:58:03.168Z,4.90
2019-06-01T06:00:43.950Z,5.67
2019-06-01T06:03:18.147Z,5.97
2019-06-01T06:05:47.248Z,6.10
2019-06-01T06:08:18.161Z,5.47
2019-06-01T06:10:49.025Z,5.27
2019-06-01T06:13:19.849Z,5.17
2019-06-01T06:15:50.807Z,5.03
2019-06-01T06:18:22.920Z,5.23
2019-06-01T06:20:53.867Z,5.40
2019-06-01T06:23:24.639Z,5.73
2019-06-01T06:25:55.657Z,5.77
2019-06-01T06:28:26.827Z,5.17
2019-06-01T06:30:57.634Z,5.20
2019-06-01T06:33:28.372Z,5.60
2019-06-01T06:35:59.492Z,5.63
2019-06-01T06:38:30.153Z,5.37
2019-06-01T06:41:00.988Z,5.50
2019-06-01T06:43:33.302Z,5.33
2019-06-01T06:48:53.699Z,5.23
2019-06-01T06:51:25.537Z,5.00
2019-06-01T06:53:56.392Z,5.17
2019-06-01T06:56:27.457Z,4.60
2019-06-01T06:58:58.268Z,4.93
2019-06-01T07:01:29.266Z,4.97
2019-06-01T07:04:12.392Z,5.63
2019-06-01T07:06:32.686Z,5.23
2019-06-01T07:09:03.704Z,4.30
2019-06-01T07:11:34.541Z,5.47
2019-06-01T07:14:05.377Z,5.10
2019-06-01T07:16:36.366Z,5.10
2019-06-01T07:19:06.949Z,4.87
2019-06-01T07:21:38.358Z,4.83
2019-06-01T07:24:09.256Z,4.70
2019-06-01T07:26:39.970Z,5.20
2019-06-01T07:29:10.722Z,5.10
2019-06-01T07:31:41.325Z,5.00
2019-06-01T07:34:27.105Z,4.93
2019-06-01T07:36:44.666Z,4.03
2019-06-01T07:39:15.510Z,4.60
2019-06-01T07:41:46.286Z,4.17
2019-06-01T07:44:17.200Z,5.00
2019-06-01T07:46:47.808Z,5.00
2019-06-01T07:49:20.935Z,4.77
2019-06-01T07:51:52.996Z,4.80
2019-06-01T07:54:24.851Z,5.03
2019-06-01T07:56:55.497Z,4.97
2019-06-01T07:59:28.280Z,4.40
2019-06-01T08:01:59.315Z,4.00
2019-06-01T08:04:47.559Z,3.67
2019-06-01T08:07:02.722Z,3.23
2019-06-01T08:09:33.931Z,3.40
2019-06-01T08:12:04.759Z,3.03
2019-06-01T08:14:35.613Z,3.90
2019-06-01T08:17:06.535Z,4.13
2019-06-01T08:19:37.200Z,3.40
2019-06-01T08:22:08.426Z,3.17
2019-06-01T08:24:39.221Z,3.10
2019-06-01T08:27:10.188Z,3.80
2019-06-01T08:29:41.208Z,3.50
2019-06-01T08:32:12.059Z,3.30
2019-06-01T08:34:43.116Z,3.40
2019-06-01T08:37:14.028Z,3.30
2019-06-01T08:39:45.028Z,3.50
2019-06-01T08:42:16.053Z,4.17
2019-06-01T08:44:46.656Z,3.80
2019-06-01T08:47:17.296Z,3.80
2019-06-01T08:49:47.990Z,3.93
2019-06-01T08:52:18.870Z,3.30
2019-06-01T08:54:49.767Z,3.37
2019-06-01T08:57:20.528Z,3.10
2019-06-01T08:59:51.207Z,2.70
2019-06-01T09:02:22.804Z,2.30
2019-06-01T09:04:53.465Z,2.70
2019-06-01T09:07:24.856Z,2.80
2019-06-01T09:09:55.850Z,2.27
2019-06-01T09:12:27.258Z,2.37
2019-06-01T09:14:58.173Z,2.67
2019-06-01T09:17:29.427Z,2.43
2019-06-01T09:20:00.193Z,2.70
2019-06-01T09:22:31.576Z,2.80
2019-06-01T09:25:02.335Z,2.60
2019-06-01T09:27:33.996Z,3.17
2019-06-01T09:30:05.785Z,3.97
2019-06-01T09:32:36.639Z,3.17
2019-06-01T09:35:07.648Z,2.83
2019-06-01T09:37:39.581Z,2.70
2019-06-01T09:40:10.440Z,3.03
2019-06-01T09:42:41.131Z,2.77
2019-06-01T09:45:12.091Z,3.07
2019-06-01T09:47:43.201Z,2.80
2019-06-01T09:50:14.229Z,3.13
2019-06-01T09:52:45.125Z,3.03
2019-06-01T09:55:16.002Z,2.03
2019-06-01T09:57:47.032Z,1.20
2019-06-01T10:00:20.870Z,1.10
2019-06-01T10:02:51.575Z,1.10
2019-06-01T10:05:22.564Z,0.93
2019-06-01T10:07:53.346Z,0.90
2019-06-01T10:10:24.254Z,1.00
2019-06-01T10:12:55.021Z,1.10
2019-06-01T10:15:25.813Z,0.90
2019-06-01T10:17:56.471Z,1.13
2019-06-01T10:23:16.641Z,1.10
2019-06-01T10:25:47.279Z,1.20
2019-06-01T10:28:17.921Z,1.80
2019-06-01T10:30:48.695Z,1.93
2019-06-01T10:33:19.336Z,1.73
2019-06-01T10:35:50.060Z,2.10
2019-06-01T10:38:21.789Z,2.37
2019-06-01T10:40:52.764Z,1.90
2019-06-01T10:43:23.782Z,1.80
2019-06-01T10:45:54.423Z,1.83
2019-06-01T10:48:25.095Z,2.20
2019-06-01T10:50:56.923Z,2.23
2019-06-01T10:53:27.618Z,2.30
2019-06-01T10:55:58.276Z,2.00
2019-06-01T10:58:29.084Z,3.37
2019-06-01T11:00:59.829Z,2.90
2019-06-01T11:03:30.546Z,3.27
2019-06-01T11:06:01.303Z,3.40
2019-06-01T11:08:32.834Z,3.13
2019-06-01T11:11:03.852Z,3.00
2019-06-01T11:13:35.022Z,2.37
2019-06-01T11:16:05.889Z,2.83
2019-06-01T11:18:37.479Z,2.33
2019-06-01T11:21:08.280Z,2.13
2019-06-01T11:23:42.743Z,2.30
2019-06-01T11:26:11.815Z,1.60
2019-06-01T11:28:42.447Z,1.90
2019-06-01T11:31:13.312Z,1.63
2019-06-01T11:33:44.334Z,1.50
2019-06-01T11:36:14.995Z,1.40
2019-06-01T11:38:45.746Z,1.40
2019-06-01T11:41:18.633Z,1.10
2019-06-01T11:43:48.928Z,1.27
2019-06-01T11:46:19.527Z,1.30
2019-06-01T11:48:51.385Z,1.70
2019-06-01T11:51:23.291Z,1.30
2019-06-01T11:56:43.343Z,1.40
2019-06-01T11:59:14.082Z,1.72
2019-06-01T12:01:46.027Z,1.50
2019-06-01T12:04:16.782Z,1.37
2019-06-01T12:06:47.520Z,1.47
2019-06-01T12:09:18.116Z,1.40
2019-06-01T12:11:48.735Z,1.50
2019-06-01T12:14:19.338Z,1.35
2019-06-01T12:16:50.378Z,1.45
2019-06-01T12:22:02.926Z,1.50
2019-06-01T12:24:33.521Z,1.50
2019-06-01T12:27:04.191Z,1.62
2019-06-01T12:29:34.845Z,1.47
2019-06-01T12:32:05.465Z,1.30
2019-06-01T12:34:36.084Z,1.40
2019-06-01T12:37:06.694Z,1.60
2019-06-01T12:39:38.300Z,1.87
2019-06-01T12:42:08.992Z,1.62
2019-06-01T12:44:39.792Z,1.80
2019-06-01T12:47:10.396Z,1.65
2019-06-01T12:49:42.192Z,1.75
2019-06-01T12:55:01.831Z,1.90
2019-06-01T12:57:32.609Z,1.70
2019-06-01T13:00:03.358Z,1.60
2019-06-01T13:02:34.139Z,2.22
2019-06-01T13:05:05.542Z,1.80
2019-06-01T13:07:51.161Z,2.50
2019-06-01T13:10:09.232Z,1.90
2019-06-01T13:12:41.082Z,2.08
2019-06-01T13:15:13.493Z,1.57
2019-06-01T13:17:45.283Z,1.45
2019-06-01T13:20:16.208Z,1.77
2019-06-01T13:22:47.711Z,1.80
2019-06-01T13:25:18.445Z,1.70
2019-06-01T13:27:50.494Z,1.60
2019-06-01T13:30:22.265Z,1.60
2019-06-01T13:32:53.012Z,1.70
2019-06-01T13:35:23.619Z,1.72
2019-06-01T13:38:10.963Z,1.60
2019-06-01T13:40:26.522Z,1.62
2019-06-01T13:42:57.293Z,1.80
2019-06-01T13:45:27.919Z,1.70
2019-06-01T13:47:58.557Z,1.50
2019-06-01T13:50:29.266Z,1.50
2019-06-01T13:52:59.952Z,1.82
2019-06-01T13:55:30.628Z,1.90
2019-06-01T13:58:01.325Z,1.70
2019-06-01T14:00:32.023Z,1.55
2019-06-01T14:03:02.679Z,1.65
2019-06-01T14:05:34.353Z,1.60
2019-06-01T14:08:04.954Z,1.32
2019-06-01T14:10:35.607Z,1.60
2019-06-01T14:13:06.307Z,1.80
2019-06-01T14:15:37.031Z,1.80
2019-06-01T14:18:07.633Z,1.45
2019-06-01T14:20:38.289Z,1.80
2019-06-01T14:23:08.900Z,1.90
2019-06-01T14:25:39.552Z,1.60
2019-06-01T14:28:10.229Z,1.50
2019-06-01T14:33:37.248Z,1.67
2019-06-01T14:36:07.891Z,1.52
2019-06-01T14:38:46.881Z,1.50
2019-06-01T14:41:10.823Z,1.60
2019-06-01T14:43:41.487Z,1.90
2019-06-01T14:46:12.568Z,2.05
2019-06-01T14:48:43.185Z,1.50
2019-06-01T14:51:13.811Z,1.60
2019-06-01T14:53:44.446Z,1.60
2019-06-01T14:56:15.146Z,1.67
2019-06-01T14:58:45.846Z,1.70
2019-06-01T15:01:31.386Z,1.70
2019-06-01T15:03:48.743Z,2.15
2019-06-01T15:06:20.998Z,2.00
2019-06-01T15:09:13.176Z,1.98
2019-06-01T15:11:23.988Z,1.57
2019-06-01T15:13:54.702Z,1.60
2019-06-01T15:16:25.348Z,1.98
2019-06-01T15:18:56.165Z,1.55
2019-06-01T15:21:26.813Z,1.62
2019-06-01T15:23:58.773Z,1.80
2019-06-01T15:26:29.432Z,1.90
2019-06-01T15:29:00.064Z,1.50
2019-06-01T15:31:30.705Z,1.50
2019-06-01T15:34:01.813Z,1.87
2019-06-01T15:36:32.622Z,1.60
2019-06-01T15:39:04.385Z,1.42
2019-06-01T15:41:35.398Z,1.42
2019-06-01T15:44:06.322Z,1.70
2019-06-01T15:46:37.088Z,1.80
2019-06-01T15:49:08.826Z,1.65
2019-06-01T15:51:39.546Z,1.77
2019-06-01T15:54:10.520Z,1.62
2019-06-01T15:56:41.177Z,1.45
2019-06-01T15:59:11.816Z,1.52
2019-06-01T16:01:42.429Z,1.77
2019-06-01T16:04:13.110Z,1.67
2019-06-01T16:06:43.719Z,1.80
2019-06-01T16:09:14.375Z,2.05
2019-06-01T16:11:44.977Z,2.10
2019-06-01T16:14:15.653Z,1.77
2019-06-01T16:16:46.274Z,2.35
2019-06-01T16:19:16.920Z,1.40
2019-06-01T16:21:47.582Z,1.60
2019-06-01T16:24:18.171Z,2.00
2019-06-01T16:26:48.842Z,1.80
2019-06-01T16:29:19.470Z,2.00
2019-06-01T16:31:50.178Z,1.98
2019-06-01T16:34:20.756Z,2.00
2019-06-01T16:36:51.420Z,1.90
2019-06-01T16:39:22.013Z,1.90
2019-06-01T16:41:52.740Z,2.10
2019-06-01T16:44:23.409Z,2.65
2019-06-01T16:46:54.073Z,2.25
2019-06-01T16:49:27.228Z,1.80
2019-06-01T16:51:59.197Z,2.37
2019-06-01T16:54:29.852Z,2.10
2019-06-01T16:57:00.592Z,2.10
2019-06-01T16:59:31.190Z,2.30
2019-06-01T17:02:03.209Z,2.00
2019-06-01T17:04:34.930Z,1.90
2019-06-01T17:07:08.553Z,2.22
2019-06-01T17:09:38.087Z,2.30
2019-06-01T17:12:08.708Z,2.10
2019-06-01T17:14:39.361Z,2.08
2019-06-01T17:17:10.037Z,2.30
2019-06-01T17:19:40.715Z,2.30
2019-06-01T17:22:11.349Z,2.33
2019-06-01T17:24:42.051Z,2.15
2019-06-01T17:27:12.747Z,2.22
2019-06-01T17:29:43.440Z,1.55
2019-06-01T17:32:23.956Z,1.90
2019-06-01T17:34:46.433Z,2.30
2019-06-01T17:37:17.076Z,2.58
2019-06-01T17:39:47.691Z,2.58
2019-06-01T17:45:14.341Z,4.10
2019-06-01T17:47:44.988Z,2.37
2019-06-01T17:50:18.235Z,2.40
2019-06-01T17:52:48.410Z,2.42
2019-06-01T17:55:32.984Z,2.50
2019-06-01T17:58:03.835Z,2.50
2019-06-01T18:00:34.650Z,2.25
2019-06-01T18:03:07.956Z,2.25
2019-06-01T18:05:39.193Z,2.52
2019-06-01T18:08:10.379Z,2.67
2019-06-01T18:10:53.483Z,2.42
2019-06-01T18:13:14.012Z,3.02
2019-06-01T18:15:44.801Z,2.52
2019-06-01T18:18:15.476Z,2.70
2019-06-01T18:20:46.427Z,2.70
2019-06-01T18:23:17.071Z,2.92
2019-06-01T18:25:48.068Z,2.58
2019-06-01T18:28:19.845Z,2.52
2019-06-01T18:30:51.438Z,2.80
2019-06-01T18:33:23.239Z,2.55
2019-06-01T18:35:54.272Z,2.42
2019-06-01T18:38:25.158Z,2.37
2019-06-01T18:41:08.772Z,2.25
2019-06-01T18:43:28.253Z,2.22
2019-06-01T18:48:47.943Z,2.08
2019-06-01T18:51:18.665Z,2.35
2019-06-01T18:53:49.989Z,1.92
2019-06-01T18:56:23.107Z,2.00
2019-06-01T18:58:54.016Z,2.20
2019-06-01T19:01:24.844Z,2.20
2019-06-01T19:03:55.525Z,1.95
2019-06-01T19:06:26.318Z,2.30
2019-06-01T19:08:57.696Z,2.17
2019-06-01T19:11:35.693Z,2.00
2019-06-01T19:14:00.604Z,2.33
2019-06-01T19:16:31.350Z,2.00
2019-06-01T19:19:02.119Z,1.95
2019-06-01T19:21:32.925Z,2.30
2019-06-01T19:24:03.621Z,2.40
2019-06-01T19:26:34.333Z,2.15
2019-06-01T19:29:06.638Z,2.12
2019-06-01T19:31:37.653Z,2.20
2019-06-01T19:34:08.876Z,2.40
2019-06-01T19:36:40.790Z,2.30
2019-06-01T19:39:11.750Z,2.50
2019-06-01T19:41:45.238Z,2.30
2019-06-01T19:44:15.826Z,2.07
2019-06-01T19:46:46.688Z,2.58
2019-06-01T19:49:18.985Z,2.62
2019-06-01T19:51:49.844Z,2.65
2019-06-01T19:54:20.771Z,2.25
2019-06-01T19:56:51.460Z,2.55
2019-06-01T19:59:22.248Z,2.75
2019-06-01T20:01:53.105Z,2.90
2019-06-01T20:04:23.825Z,2.97
2019-06-01T20:06:54.514Z,3.33
2019-06-01T20:09:25.179Z,2.80
2019-06-01T20:12:01.986Z,3.23
2019-06-01T20:14:29.127Z,3.20
2019-06-01T20:16:59.955Z,3.07
2019-06-01T20:19:30.595Z,3.23
2019-06-01T20:22:01.350Z,3.10
2019-06-01T20:24:31.945Z,3.00
2019-06-01T20:27:02.644Z,3.30
2019-06-01T20:29:33.424Z,3.10
2019-06-01T20:32:04.366Z,3.43
2019-06-01T20:34:35.077Z,3.40
2019-06-01T20:37:05.840Z,3.20
2019-06-01T20:39:36.528Z,3.47
2019-06-01T20:42:20.831Z,3.60
2019-06-01T20:44:39.902Z,4.13
2019-06-01T20:47:10.636Z,4.13
2019-06-01T20:49:41.316Z,4.80
2019-06-01T20:52:12.708Z,4.87
2019-06-01T20:54:44.461Z,5.07
2019-06-01T20:57:17.462Z,4.73
2019-06-01T20:59:48.230Z,4.80
2019-06-01T21:02:19.881Z,4.77
2019-06-01T21:04:50.519Z,4.57
2019-06-01T21:07:22.244Z,4.90
2019-06-01T21:09:52.965Z,4.90
2019-06-01T21:12:42.616Z,4.80
2019-06-01T21:14:55.863Z,4.57
2019-06-01T21:17:26.599Z,4.60
2019-06-01T21:19:57.403Z,4.80
2019-06-01T21:22:28.112Z,4.10
2019-06-01T21:27:55.393Z,4.77
2019-06-01T21:30:26.049Z,4.63
2019-06-01T21:35:46.026Z,4.53
2019-06-01T21:38:17.248Z,4.33
2019-06-01T21:40:48.015Z,4.00
2019-06-01T21:43:26.019Z,4.10
2019-06-01T21:45:51.119Z,4.00
2019-06-01T21:48:21.778Z,4.57
2019-06-01T21:50:52.394Z,4.30
2019-06-01T21:53:24.413Z,4.50
2019-06-01T21:55:56.038Z,4.00
2019-06-01T21:58:27.695Z,4.30
2019-06-01T22:00:58.453Z,3.90
2019-06-01T22:03:29.116Z,4.03
2019-06-01T22:05:59.748Z,4.90
2019-06-01T22:08:30.342Z,4.77
2019-06-01T22:11:01.500Z,4.67
2019-06-01T22:13:32.167Z,4.70
2019-06-01T22:16:02.865Z,4.67
2019-06-01T22:18:33.527Z,4.43
2019-06-01T22:21:04.183Z,4.90
2019-06-01T22:23:34.812Z,4.07
2019-06-01T22:26:05.648Z,4.77
2019-06-01T22:28:36.354Z,4.53
2019-06-01T22:31:07.038Z,4.07
2019-06-01T22:33:37.763Z,3.97
2019-06-01T22:36:08.425Z,4.60
2019-06-01T22:38:39.032Z,4.57
2019-06-01T22:41:09.705Z,4.17
2019-06-01T22:43:46.568Z,4.27
2019-06-01T22:46:12.765Z,4.20
2019-06-01T22:48:43.409Z,3.90
2019-06-01T22:51:14.097Z,4.23
2019-06-01T22:53:44.814Z,4.00
2019-06-01T22:59:11.746Z,4.20
2019-06-01T23:01:42.462Z,4.40
2019-06-01T23:04:13.114Z,4.50
2019-06-01T23:06:43.868Z,5.13
2019-06-01T23:09:15.560Z,4.90
2019-06-01T23:11:46.196Z,4.27
2019-06-01T23:17:12.780Z,4.23
2019-06-01T23:19:43.549Z,4.70
2019-06-01T23:22:14.219Z,4.83
2019-06-01T23:24:44.941Z,4.70
2019-06-01T23:27:15.578Z,4.47
2019-06-01T23:29:46.336Z,4.37
2019-06-01T23:32:17.073Z,4.33
2019-06-01T23:34:47.679Z,4.33
2019-06-01T23:37:18.387Z,4.90
2019-06-01T23:39:49.193Z,4.60
2019-06-01T23:42:19.860Z,6.33
2019-06-01T23:44:50.512Z,5.90
2019-06-01T23:47:23.022Z,6.07
2019-06-01T23:49:53.654Z,5.57
2019-06-01T23:52:25.490Z,6.23
2019-06-01T23:54:56.275Z,6.27
2019-06-01T23:57:27.925Z,6.10
2019-06-01T23:59:58.634Z,6.00
